Juergen K — PBKV — position and weather

sailwx.info

Track history (hours):
 
Tides and Currents Weather Stations Pressure Air Temp Water Temp Dewpoint Dewpoint Depression Visibility Wind Speed Wind Dir Waves Ship Positions

Juergen K

Last reported at 2017-Feb-26 07:24 UTC. Time now 2017-Feb-26 07:48 UTC.
Position N 56°36' W 002°17'.

Length 89 m; draft 5.4 m.

Type: Cargo ship. MMSI: 244329000.

Date/timePositionNaut miles runAvg speedWind from/ knotsBaromVisibWave heightAir tempDewpointWater temp
2017-Feb-26 07:24N 56°36' W 002°17'910.3
2017-Feb-26 06:33N 56°28' W 002°09'1010.0
2017-Feb-26 05:33N 56°20' W 001°60'10 9.6
2017-Feb-26 04:30N 56°11' W 001°51'44 8.6
2017-Feb-25 23:23N 55°33' W 001°10'64 9.3
2017-Feb-25 16:33N 54°39' W 000°12'7 7.4
2017-Feb-25 15:33N 54°33' W 000°05'8 7.7
2017-Feb-25 14:33N 54°26' E 000°01'8 7.9
2017-Feb-25 13:33N 54°20' E 000°08'8 8.4
2017-Feb-25 12:33N 54°12' E 000°16'9 9.1
2017-Feb-25 11:33N 54°05' E 000°24'67 9.1
2017-Feb-25 04:11N 53°08' E 001°23'6 9.4
2017-Feb-25 03:33N 53°02' E 001°28'1110.6
2017-Feb-25 02:33N 52°54' E 001°39'1211.7
2017-Feb-25 01:33N 52°47' E 001°55'3411.4
2017-Feb-24 22:33N 52°13' E 001°51'9 9.1
2017-Feb-24 21:33N 52°04' E 001°50'8 7.9
2017-Feb-24 20:33N 51°57' E 001°49'7 7.4
2017-Feb-24 19:33N 51°49' E 001°49'8 7.6
2017-Feb-24 18:33N 51°42' E 001°50'8 7.9
2017-Feb-24 17:31N 51°33' E 001°48'8 8.5
2017-Feb-24 16:33N 51°26' E 001°44'9 8.7
2017-Feb-24 15:33N 51°17' E 001°40'8 8.3
2017-Feb-24 14:33N 51°09' E 001°41'8 8.3
2017-Feb-24 13:33N 51°02' E 001°34'10 9.7
2017-Feb-24 12:33N 50°54' E 001°24'62 9.6
2017-Feb-24 06:06N 50°21' E 000°02'226 8.5
2017-Feb-23 03:33N 48°52' W 005°18'9 9.5
2017-Feb-23 02:33N 48°48' W 005°31'46 9.2
2017-Feb-22 21:34N 48°08' W 006°05'9 8.7
2017-Feb-22 20:33N 48°01' W 006°12'8 8.4
2017-Feb-22 19:33N 47°53' W 006°17'8 8.2
2017-Feb-22 18:33N 47°46' W 006°23'25 8.2
2017-Feb-22 15:33N 47°24' W 006°39'  
2017-Feb-20 05:26N 39°37' W 009°50'18 8.7
2017-Feb-20 03:23N 39°19' W 009°50'7 8.7
2017-Feb-20 02:33N 39°12' W 009°50'8 8.5
2017-Feb-20 01:33N 39°03' W 009°51'8 8.5
2017-Feb-20 00:33N 38°55' W 009°51'8 8.4
2017-Feb-19 23:33N 38°47' W 009°51'8 8.4
2017-Feb-19 22:33N 38°38' W 009°50'9 8.7
2017-Feb-19 21:33N 38°30' W 009°47'8 8.4
2017-Feb-19 20:33N 38°22' W 009°45'8 8.2
2017-Feb-19 19:33N 38°14' W 009°42'9 8.2
2017-Feb-19 18:31N 38°05' W 009°40'8 8.2
2017-Feb-19 17:33N 37°58' W 009°38'8 7.8
2017-Feb-19 16:33N 37°50' W 009°35'8 8.0
2017-Feb-19 15:31N 37°42' W 009°33'215 8.2
2017-Feb-18 13:17N 35°58' W 005°37'6 8.3
2017-Feb-18 12:33N 35°60' W 005°30'9 8.6
2017-Feb-18 11:33N 36°02' W 005°20'11 9.9
2017-Feb-18 10:30N 36°04' W 005°07'218 9.4
2017-Feb-17 11:16N 37°21' W 000°53'1910.6
2017-Feb-17 09:31N 37°33' W 000°35'1010.2
2017-Feb-17 08:30N 37°41' W 000°28'  
Track history (hours):
 
Tides and Currents Weather Stations Pressure Air Temp Water Temp Dewpoint Dewpoint Depression Visibility Wind Speed Wind Dir Waves Ship Positions

Juergen K

Last reported at 2017-Feb-26 07:24 UTC. Time now 2017-Feb-26 07:48 UTC.
Position N 56°36' W 002°17'.

Length 89 m; draft 5.4 m.

Type: Cargo ship. MMSI: 244329000.

Date/timePositionNaut miles runAvg speedWind from/ knotsBaromVisibWave heightAir tempDewpointWater temp
2017-Feb-26 07:24N 56°36' W 002°17'910.3
2017-Feb-26 06:33N 56°28' W 002°09'1010.0
2017-Feb-26 05:33N 56°20' W 001°60'10 9.6
2017-Feb-26 04:30N 56°11' W 001°51'44 8.6
2017-Feb-25 23:23N 55°33' W 001°10'64 9.3
2017-Feb-25 16:33N 54°39' W 000°12'7 7.4
2017-Feb-25 15:33N 54°33' W 000°05'8 7.7
2017-Feb-25 14:33N 54°26' E 000°01'8 7.9
2017-Feb-25 13:33N 54°20' E 000°08'8 8.4
2017-Feb-25 12:33N 54°12' E 000°16'9 9.1
2017-Feb-25 11:33N 54°05' E 000°24'67 9.1
2017-Feb-25 04:11N 53°08' E 001°23'6 9.4
2017-Feb-25 03:33N 53°02' E 001°28'1110.6
2017-Feb-25 02:33N 52°54' E 001°39'1211.7
2017-Feb-25 01:33N 52°47' E 001°55'3411.4
2017-Feb-24 22:33N 52°13' E 001°51'9 9.1
2017-Feb-24 21:33N 52°04' E 001°50'8 7.9
2017-Feb-24 20:33N 51°57' E 001°49'7 7.4
2017-Feb-24 19:33N 51°49' E 001°49'8 7.6
2017-Feb-24 18:33N 51°42' E 001°50'8 7.9
2017-Feb-24 17:31N 51°33' E 001°48'8 8.5
2017-Feb-24 16:33N 51°26' E 001°44'9 8.7
2017-Feb-24 15:33N 51°17' E 001°40'8 8.3
2017-Feb-24 14:33N 51°09' E 001°41'8 8.3
2017-Feb-24 13:33N 51°02' E 001°34'10 9.7
2017-Feb-24 12:33N 50°54' E 001°24'62 9.6
2017-Feb-24 06:06N 50°21' E 000°02'226 8.5
2017-Feb-23 03:33N 48°52' W 005°18'9 9.5
2017-Feb-23 02:33N 48°48' W 005°31'46 9.2
2017-Feb-22 21:34N 48°08' W 006°05'9 8.7
2017-Feb-22 20:33N 48°01' W 006°12'8 8.4
2017-Feb-22 19:33N 47°53' W 006°17'8 8.2
2017-Feb-22 18:33N 47°46' W 006°23'25 8.2
2017-Feb-22 15:33N 47°24' W 006°39'  
2017-Feb-20 05:26N 39°37' W 009°50'18 8.7
2017-Feb-20 03:23N 39°19' W 009°50'7 8.7
2017-Feb-20 02:33N 39°12' W 009°50'8 8.5
2017-Feb-20 01:33N 39°03' W 009°51'8 8.5
2017-Feb-20 00:33N 38°55' W 009°51'8 8.4
2017-Feb-19 23:33N 38°47' W 009°51'8 8.4
2017-Feb-19 22:33N 38°38' W 009°50'9 8.7
2017-Feb-19 21:33N 38°30' W 009°47'8 8.4
2017-Feb-19 20:33N 38°22' W 009°45'8 8.2
2017-Feb-19 19:33N 38°14' W 009°42'9 8.2
2017-Feb-19 18:31N 38°05' W 009°40'8 8.2
2017-Feb-19 17:33N 37°58' W 009°38'8 7.8
2017-Feb-19 16:33N 37°50' W 009°35'8 8.0
2017-Feb-19 15:31N 37°42' W 009°33'215 8.2
2017-Feb-18 13:17N 35°58' W 005°37'6 8.3
2017-Feb-18 12:33N 35°60' W 005°30'9 8.6
2017-Feb-18 11:33N 36°02' W 005°20'11 9.9
2017-Feb-18 10:30N 36°04' W 005°07'218 9.4
2017-Feb-17 11:16N 37°21' W 000°53'1910.6
2017-Feb-17 09:31N 37°33' W 000°35'1010.2
2017-Feb-17 08:30N 37°41' W 000°28'  

Dump ship's entire track history